sensor_id;sensor_type;location;lat;lon;timestamp;temperature;humidity
11838;DHT22;5978;51.020;6.764;2023-02-28T00:00:17;1.70;99.90
11838;DHT22;5978;51.020;6.764;2023-02-28T00:02:43;1.70;99.90
11838;DHT22;5978;51.020;6.764;2023-02-28T00:05:10;1.70;99.90
11838;DHT22;5978;51.020;6.764;2023-02-28T00:07:37;1.60;99.90
11838;DHT22;5978;51.020;6.764;2023-02-28T00:10:07;1.60;99.90
11838;DHT22;5978;51.020;6.764;2023-02-28T00:12:34;1.60;99.90
11838;DHT22;5978;51.020;6.764;2023-02-28T00:14:59;1.50;99.90
11838;DHT22;5978;51.020;6.764;2023-02-28T00:17:25;1.50;99.90
11838;DHT22;5978;51.020;6.764;2023-02-28T00:19:51;1.50;99.90
11838;DHT22;5978;51.020;6.764;2023-02-28T00:22:20;1.50;99.90
11838;DHT22;5978;51.020;6.764;2023-02-28T00:24:46;1.50;99.90
11838;DHT22;5978;51.020;6.764;2023-02-28T00:27:13;1.50;99.90
11838;DHT22;5978;51.020;6.764;2023-02-28T00:29:38;1.50;99.90
11838;DHT22;5978;51.020;6.764;2023-02-28T00:32:05;1.40;99.90
11838;DHT22;5978;51.020;6.764;2023-02-28T00:34:31;1.40;99.90
11838;DHT22;5978;51.020;6.764;2023-02-28T00:36:56;1.40;99.90
11838;DHT22;5978;51.020;6.764;2023-02-28T00:39:22;1.40;99.90
11838;DHT22;5978;51.020;6.764;2023-02-28T00:41:48;1.30;99.90
11838;DHT22;5978;51.020;6.764;2023-02-28T00:44:13;1.40;99.90
11838;DHT22;5978;51.020;6.764;2023-02-28T00:46:39;1.30;99.90
11838;DHT22;5978;51.020;6.764;2023-02-28T00:49:04;1.30;99.90
11838;DHT22;5978;51.020;6.764;2023-02-28T00:51:30;1.30;99.90
11838;DHT22;5978;51.020;6.764;2023-02-28T00:53:55;1.30;99.90
11838;DHT22;5978;51.020;6.764;2023-02-28T00:56:21;1.30;99.90
11838;DHT22;5978;51.020;6.764;2023-02-28T00:58:47;1.30;99.90
11838;DHT22;5978;51.020;6.764;2023-02-28T01:01:12;1.30;99.90
11838;DHT22;5978;51.020;6.764;2023-02-28T01:03:38;1.30;99.90
11838;DHT22;5978;51.020;6.764;2023-02-28T01:06:04;1.20;99.90
11838;DHT22;5978;51.020;6.764;2023-02-28T01:08:29;1.20;99.90
11838;DHT22;5978;51.020;6.764;2023-02-28T01:10:55;1.20;99.90
11838;DHT22;5978;51.020;6.764;2023-02-28T01:13:21;1.20;99.90
11838;DHT22;5978;51.020;6.764;2023-02-28T01:15:53;1.20;99.90
11838;DHT22;5978;51.020;6.764;2023-02-28T01:18:20;1.20;99.90
11838;DHT22;5978;51.020;6.764;2023-02-28T01:20:46;1.20;99.90
11838;DHT22;5978;51.020;6.764;2023-02-28T01:23:12;1.10;99.90
11838;DHT22;5978;51.020;6.764;2023-02-28T01:25:38;1.10;99.90
11838;DHT22;5978;51.020;6.764;2023-02-28T01:28:04;1.10;99.90
11838;DHT22;5978;51.020;6.764;2023-02-28T01:30:31;1.10;99.90
11838;DHT22;5978;51.020;6.764;2023-02-28T01:32:56;1.10;99.90
11838;DHT22;5978;51.020;6.764;2023-02-28T01:35:22;1.00;99.90
11838;DHT22;5978;51.020;6.764;2023-02-28T01:37:47;1.00;99.90
11838;DHT22;5978;51.020;6.764;2023-02-28T01:40:13;1.10;99.90
11838;DHT22;5978;51.020;6.764;2023-02-28T01:42:39;1.00;99.90
11838;DHT22;5978;51.020;6.764;2023-02-28T01:45:26;1.00;99.90
11838;DHT22;5978;51.020;6.764;2023-02-28T01:47:56;1.00;99.90
11838;DHT22;5978;51.020;6.764;2023-02-28T01:50:26;0.90;99.90
11838;DHT22;5978;51.020;6.764;2023-02-28T01:52:55;1.00;99.90
11838;DHT22;5978;51.020;6.764;2023-02-28T01:55:23;0.90;99.90
11838;DHT22;5978;51.020;6.764;2023-02-28T01:57:56;0.90;99.90
11838;DHT22;5978;51.020;6.764;2023-02-28T02:00:25;0.90;99.90
11838;DHT22;5978;51.020;6.764;2023-02-28T02:02:55;0.90;99.90
11838;DHT22;5978;51.020;6.764;2023-02-28T02:05:24;0.80;99.90
11838;DHT22;5978;51.020;6.764;2023-02-28T02:07:55;0.90;99.90
11838;DHT22;5978;51.020;6.764;2023-02-28T02:10:38;0.80;99.90
11838;DHT22;5978;51.020;6.764;2023-02-28T02:18:57;0.80;99.90
11838;DHT22;5978;51.020;6.764;2023-02-28T02:27:27;0.70;99.90
11838;DHT22;5978;51.020;6.764;2023-02-28T02:38:47;0.60;99.90
11838;DHT22;5978;51.020;6.764;2023-02-28T02:41:34;0.60;99.90
11838;DHT22;5978;51.020;6.764;2023-02-28T02:44:50;0.60;99.90
11838;DHT22;5978;51.020;6.764;2023-02-28T02:47:00;0.60;99.90
11838;DHT22;5978;51.020;6.764;2023-02-28T02:49:32;0.60;99.90
11838;DHT22;5978;51.020;6.764;2023-02-28T02:52:02;0.60;99.90
11838;DHT22;5978;51.020;6.764;2023-02-28T02:54:31;0.70;99.90
11838;DHT22;5978;51.020;6.764;2023-02-28T02:57:02;0.70;99.90
11838;DHT22;5978;51.020;6.764;2023-02-28T02:59:29;0.60;99.90
11838;DHT22;5978;51.020;6.764;2023-02-28T03:01:59;0.70;99.90
11838;DHT22;5978;51.020;6.764;2023-02-28T03:04:27;0.70;99.90
11838;DHT22;5978;51.020;6.764;2023-02-28T03:06:54;0.60;99.90
11838;DHT22;5978;51.020;6.764;2023-02-28T03:09:24;0.70;99.90
11838;DHT22;5978;51.020;6.764;2023-02-28T03:11:52;0.60;99.90
11838;DHT22;5978;51.020;6.764;2023-02-28T03:14:56;0.60;99.90
11838;DHT22;5978;51.020;6.764;2023-02-28T03:18:00;0.70;99.90
11838;DHT22;5978;51.020;6.764;2023-02-28T03:20:41;0.70;99.90
11838;DHT22;5978;51.020;6.764;2023-02-28T03:23:25;0.60;99.90
11838;DHT22;5978;51.020;6.764;2023-02-28T03:25:56;0.60;99.90
11838;DHT22;5978;51.020;6.764;2023-02-28T03:31:40;0.60;99.90
11838;DHT22;5978;51.020;6.764;2023-02-28T03:36:46;0.60;99.90
11838;DHT22;5978;51.020;6.764;2023-02-28T03:39:24;0.50;99.90
11838;DHT22;5978;51.020;6.764;2023-02-28T03:42:11;0.30;99.90
11838;DHT22;5978;51.020;6.764;2023-02-28T03:47:30;0.20;99.90
11838;DHT22;5978;51.020;6.764;2023-02-28T03:52:42;0.10;99.90
11838;DHT22;5978;51.020;6.764;2023-02-28T03:55:12;0.10;99.90
11838;DHT22;5978;51.020;6.764;2023-02-28T03:57:40;0.10;99.90
11838;DHT22;5978;51.020;6.764;2023-02-28T04:00:12;0.10;99.90
11838;DHT22;5978;51.020;6.764;2023-02-28T04:02:39;0.00;99.90
11838;DHT22;5978;51.020;6.764;2023-02-28T04:05:06;-0.10;99.90
11838;DHT22;5978;51.020;6.764;2023-02-28T04:07:32;-0.10;99.90
11838;DHT22;5978;51.020;6.764;2023-02-28T04:09:58;-0.10;99.90
11838;DHT22;5978;51.020;6.764;2023-02-28T04:12:24;-0.10;99.90
11838;DHT22;5978;51.020;6.764;2023-02-28T04:14:50;-0.10;99.90
11838;DHT22;5978;51.020;6.764;2023-02-28T04:17:16;-0.10;99.90
11838;DHT22;5978;51.020;6.764;2023-02-28T04:19:42;-0.10;99.90
11838;DHT22;5978;51.020;6.764;2023-02-28T04:22:09;-0.10;99.90
11838;DHT22;5978;51.020;6.764;2023-02-28T04:24:35;-0.10;99.90
11838;DHT22;5978;51.020;6.764;2023-02-28T04:27:01;-0.10;99.90
11838;DHT22;5978;51.020;6.764;2023-02-28T04:29:32;-0.20;99.90
11838;DHT22;5978;51.020;6.764;2023-02-28T04:31:59;-0.20;99.90
11838;DHT22;5978;51.020;6.764;2023-02-28T04:34:26;-0.20;99.90
11838;DHT22;5978;51.020;6.764;2023-02-28T04:36:52;-0.20;99.90
11838;DHT22;5978;51.020;6.764;2023-02-28T04:39:20;-0.20;99.90
11838;DHT22;5978;51.020;6.764;2023-02-28T04:41:46;-0.20;99.90
11838;DHT22;5978;51.020;6.764;2023-02-28T04:44:11;-0.20;99.90
11838;DHT22;5978;51.020;6.764;2023-02-28T04:46:37;-0.20;99.90
11838;DHT22;5978;51.020;6.764;2023-02-28T04:49:03;-0.20;99.90
11838;DHT22;5978;51.020;6.764;2023-02-28T04:51:29;-0.10;99.90
11838;DHT22;5978;51.020;6.764;2023-02-28T04:53:54;-0.10;99.90
11838;DHT22;5978;51.020;6.764;2023-02-28T04:56:20;-0.10;99.90
11838;DHT22;5978;51.020;6.764;2023-02-28T04:58:47;-0.10;99.90
11838;DHT22;5978;51.020;6.764;2023-02-28T05:01:28;-0.10;99.90
11838;DHT22;5978;51.020;6.764;2023-02-28T05:03:56;-0.10;99.90
11838;DHT22;5978;51.020;6.764;2023-02-28T05:06:24;-0.10;99.90
11838;DHT22;5978;51.020;6.764;2023-02-28T05:08:50;-0.10;99.90
11838;DHT22;5978;51.020;6.764;2023-02-28T05:11:25;-0.10;99.90
11838;DHT22;5978;51.020;6.764;2023-02-28T05:13:52;-0.10;99.90
11838;DHT22;5978;51.020;6.764;2023-02-28T05:16:18;-0.10;99.90
11838;DHT22;5978;51.020;6.764;2023-02-28T05:18:44;-0.10;99.90
11838;DHT22;5978;51.020;6.764;2023-02-28T05:23:55;-0.10;99.90
11838;DHT22;5978;51.020;6.764;2023-02-28T05:26:21;-0.10;99.90
11838;DHT22;5978;51.020;6.764;2023-02-28T05:28:47;-0.20;99.90
11838;DHT22;5978;51.020;6.764;2023-02-28T05:31:13;-0.20;99.90
11838;DHT22;5978;51.020;6.764;2023-02-28T05:33:39;-0.10;99.90
11838;DHT22;5978;51.020;6.764;2023-02-28T05:36:05;-0.10;99.90
11838;DHT22;5978;51.020;6.764;2023-02-28T05:38:31;-0.10;99.90
11838;DHT22;5978;51.020;6.764;2023-02-28T05:40:57;-0.10;99.90
11838;DHT22;5978;51.020;6.764;2023-02-28T05:43:23;-0.10;99.90
11838;DHT22;5978;51.020;6.764;2023-02-28T05:45:48;-0.10;99.90
11838;DHT22;5978;51.020;6.764;2023-02-28T05:48:14;-0.20;99.90
11838;DHT22;5978;51.020;6.764;2023-02-28T05:50:40;-0.20;99.90
11838;DHT22;5978;51.020;6.764;2023-02-28T05:53:08;-0.20;99.90
11838;DHT22;5978;51.020;6.764;2023-02-28T05:55:33;-0.30;99.90
11838;DHT22;5978;51.020;6.764;2023-02-28T05:58:01;-0.30;99.90
11838;DHT22;5978;51.020;6.764;2023-02-28T06:00:27;-0.30;99.90
11838;DHT22;5978;51.020;6.764;2023-02-28T06:02:53;-0.30;99.90
11838;DHT22;5978;51.020;6.764;2023-02-28T06:05:22;-0.40;99.90
11838;DHT22;5978;51.020;6.764;2023-02-28T06:07:47;-0.40;99.90
11838;DHT22;5978;51.020;6.764;2023-02-28T06:10:13;-0.40;99.90
11838;DHT22;5978;51.020;6.764;2023-02-28T06:12:39;-0.40;99.90
11838;DHT22;5978;51.020;6.764;2023-02-28T06:15:07;-0.50;99.90
11838;DHT22;5978;51.020;6.764;2023-02-28T06:17:34;-0.50;99.90
11838;DHT22;5978;51.020;6.764;2023-02-28T06:20:00;-0.40;99.90
11838;DHT22;5978;51.020;6.764;2023-02-28T06:22:25;-0.50;99.90
11838;DHT22;5978;51.020;6.764;2023-02-28T06:24:51;-0.50;99.90
11838;DHT22;5978;51.020;6.764;2023-02-28T06:27:18;-0.50;99.90
11838;DHT22;5978;51.020;6.764;2023-02-28T06:29:45;-0.50;99.90
11838;DHT22;5978;51.020;6.764;2023-02-28T06:32:11;-0.50;99.90
11838;DHT22;5978;51.020;6.764;2023-02-28T06:34:36;-0.50;99.90
11838;DHT22;5978;51.020;6.764;2023-02-28T06:37:02;-0.50;99.90
11838;DHT22;5978;51.020;6.764;2023-02-28T06:39:29;-0.50;99.90
11838;DHT22;5978;51.020;6.764;2023-02-28T06:41:55;-0.50;99.90
11838;DHT22;5978;51.020;6.764;2023-02-28T06:44:21;-0.50;99.90
11838;DHT22;5978;51.020;6.764;2023-02-28T06:46:46;-0.40;99.90
11838;DHT22;5978;51.020;6.764;2023-02-28T06:49:12;-0.40;99.90
11838;DHT22;5978;51.020;6.764;2023-02-28T06:51:40;-0.40;99.90
11838;DHT22;5978;51.020;6.764;2023-02-28T06:54:07;-0.30;99.90
11838;DHT22;5978;51.020;6.764;2023-02-28T06:56:34;-0.30;99.90
11838;DHT22;5978;51.020;6.764;2023-02-28T06:59:00;-0.20;99.90
11838;DHT22;5978;51.020;6.764;2023-02-28T07:01:25;-0.20;99.90
11838;DHT22;5978;51.020;6.764;2023-02-28T07:03:53;-0.10;99.90
11838;DHT22;5978;51.020;6.764;2023-02-28T07:06:20;-0.10;99.90
11838;DHT22;5978;51.020;6.764;2023-02-28T07:08:48;0.00;99.90
11838;DHT22;5978;51.020;6.764;2023-02-28T07:11:14;0.00;99.90
11838;DHT22;5978;51.020;6.764;2023-02-28T07:13:39;0.10;99.90
11838;DHT22;5978;51.020;6.764;2023-02-28T07:16:06;0.10;99.90
11838;DHT22;5978;51.020;6.764;2023-02-28T07:18:35;0.20;99.90
11838;DHT22;5978;51.020;6.764;2023-02-28T07:21:06;0.30;99.90
11838;DHT22;5978;51.020;6.764;2023-02-28T07:23:32;0.30;99.90
11838;DHT22;5978;51.020;6.764;2023-02-28T07:25:58;0.40;99.90
11838;DHT22;5978;51.020;6.764;2023-02-28T07:28:24;0.50;99.90
11838;DHT22;5978;51.020;6.764;2023-02-28T07:30:50;0.50;99.90
11838;DHT22;5978;51.020;6.764;2023-02-28T07:33:16;0.60;99.90
11838;DHT22;5978;51.020;6.764;2023-02-28T07:35:41;0.60;99.90
11838;DHT22;5978;51.020;6.764;2023-02-28T07:38:07;0.70;99.90
11838;DHT22;5978;51.020;6.764;2023-02-28T07:40:34;0.80;99.90
11838;DHT22;5978;51.020;6.764;2023-02-28T07:43:01;0.90;99.90
11838;DHT22;5978;51.020;6.764;2023-02-28T07:45:27;1.00;99.90
11838;DHT22;5978;51.020;6.764;2023-02-28T07:47:54;1.10;99.90
11838;DHT22;5978;51.020;6.764;2023-02-28T07:50:20;1.20;99.90
11838;DHT22;5978;51.020;6.764;2023-02-28T07:52:46;1.30;99.90
11838;DHT22;5978;51.020;6.764;2023-02-28T07:55:12;1.40;99.90
11838;DHT22;5978;51.020;6.764;2023-02-28T07:57:39;1.40;99.90
11838;DHT22;5978;51.020;6.764;2023-02-28T08:00:08;1.50;99.90
11838;DHT22;5978;51.020;6.764;2023-02-28T08:02:38;1.60;99.90
11838;DHT22;5978;51.020;6.764;2023-02-28T08:05:04;1.70;99.90
11838;DHT22;5978;51.020;6.764;2023-02-28T08:07:30;1.80;99.90
11838;DHT22;5978;51.020;6.764;2023-02-28T08:09:55;1.90;99.90
11838;DHT22;5978;51.020;6.764;2023-02-28T08:12:21;2.00;99.90
11838;DHT22;5978;51.020;6.764;2023-02-28T08:14:46;2.10;99.90
11838;DHT22;5978;51.020;6.764;2023-02-28T08:17:12;2.20;99.90
11838;DHT22;5978;51.020;6.764;2023-02-28T08:19:37;2.30;99.90
11838;DHT22;5978;51.020;6.764;2023-02-28T08:22:03;2.40;99.90
11838;DHT22;5978;51.020;6.764;2023-02-28T08:24:29;2.50;99.90
11838;DHT22;5978;51.020;6.764;2023-02-28T08:26:55;2.70;99.90
11838;DHT22;5978;51.020;6.764;2023-02-28T08:29:20;2.80;99.90
11838;DHT22;5978;51.020;6.764;2023-02-28T08:31:46;2.90;99.90
11838;DHT22;5978;51.020;6.764;2023-02-28T08:34:13;3.00;99.90
11838;DHT22;5978;51.020;6.764;2023-02-28T08:36:40;3.10;99.90
11838;DHT22;5978;51.020;6.764;2023-02-28T08:39:06;3.30;99.30
11838;DHT22;5978;51.020;6.764;2023-02-28T08:41:32;3.40;99.00
11838;DHT22;5978;51.020;6.764;2023-02-28T08:43:59;3.50;98.50
11838;DHT22;5978;51.020;6.764;2023-02-28T08:46:25;3.60;96.50
11838;DHT22;5978;51.020;6.764;2023-02-28T08:48:54;3.70;94.90
11838;DHT22;5978;51.020;6.764;2023-02-28T08:51:21;3.80;93.60
11838;DHT22;5978;51.020;6.764;2023-02-28T08:53:52;3.80;91.90
11838;DHT22;5978;51.020;6.764;2023-02-28T08:56:18;3.90;92.50
11838;DHT22;5978;51.020;6.764;2023-02-28T08:58:44;4.00;90.20
11838;DHT22;5978;51.020;6.764;2023-02-28T09:01:16;4.00;88.30
11838;DHT22;5978;51.020;6.764;2023-02-28T09:03:43;4.30;89.60
11838;DHT22;5978;51.020;6.764;2023-02-28T09:06:09;4.30;83.80
11838;DHT22;5978;51.020;6.764;2023-02-28T09:08:35;4.30;78.10
11838;DHT22;5978;51.020;6.764;2023-02-28T09:11:01;4.40;77.50
11838;DHT22;5978;51.020;6.764;2023-02-28T09:13:28;4.60;74.70
11838;DHT22;5978;51.020;6.764;2023-02-28T09:15:55;4.60;73.50
11838;DHT22;5978;51.020;6.764;2023-02-28T09:18:22;4.80;73.50
11838;DHT22;5978;51.020;6.764;2023-02-28T09:20:48;5.00;72.50
11838;DHT22;5978;51.020;6.764;2023-02-28T09:23:13;4.80;73.30
11838;DHT22;5978;51.020;6.764;2023-02-28T09:25:46;4.90;72.60
11838;DHT22;5978;51.020;6.764;2023-02-28T09:28:12;5.00;71.90
11838;DHT22;5978;51.020;6.764;2023-02-28T09:30:37;5.10;68.30
11838;DHT22;5978;51.020;6.764;2023-02-28T09:33:03;5.00;69.50
11838;DHT22;5978;51.020;6.764;2023-02-28T09:35:29;5.00;68.00
11838;DHT22;5978;51.020;6.764;2023-02-28T09:37:56;5.00;66.20
11838;DHT22;5978;51.020;6.764;2023-02-28T09:40:25;5.10;67.80
11838;DHT22;5978;51.020;6.764;2023-02-28T09:42:53;5.10;67.00
11838;DHT22;5978;51.020;6.764;2023-02-28T09:45:36;5.20;67.30
11838;DHT22;5978;51.020;6.764;2023-02-28T09:48:26;5.20;68.40
11838;DHT22;5978;51.020;6.764;2023-02-28T09:51:03;5.30;68.50
11838;DHT22;5978;51.020;6.764;2023-02-28T09:53:32;5.40;70.60
11838;DHT22;5978;51.020;6.764;2023-02-28T09:56:03;5.30;70.10
11838;DHT22;5978;51.020;6.764;2023-02-28T09:58:50;5.30;68.80
11838;DHT22;5978;51.020;6.764;2023-02-28T10:09:46;5.30;68.90
11838;DHT22;5978;51.020;6.764;2023-02-28T10:12:15;5.40;68.60
11838;DHT22;5978;51.020;6.764;2023-02-28T10:14:45;5.30;69.50
11838;DHT22;5978;51.020;6.764;2023-02-28T10:17:23;5.40;68.10
11838;DHT22;5978;51.020;6.764;2023-02-28T10:20:02;5.60;68.00
11838;DHT22;5978;51.020;6.764;2023-02-28T10:22:50;5.90;68.40
11838;DHT22;5978;51.020;6.764;2023-02-28T10:25:25;6.20;66.40
11838;DHT22;5978;51.020;6.764;2023-02-28T10:27:58;6.30;66.10
11838;DHT22;5978;51.020;6.764;2023-02-28T10:30:26;6.60;63.30
11838;DHT22;5978;51.020;6.764;2023-02-28T10:32:52;6.50;64.80
11838;DHT22;5978;51.020;6.764;2023-02-28T10:35:24;6.60;64.10
11838;DHT22;5978;51.020;6.764;2023-02-28T10:37:58;6.70;62.60
11838;DHT22;5978;51.020;6.764;2023-02-28T10:42:56;7.60;63.50
11838;DHT22;5978;51.020;6.764;2023-02-28T10:45:22;7.90;59.50
11838;DHT22;5978;51.020;6.764;2023-02-28T10:47:57;7.90;58.60
11838;DHT22;5978;51.020;6.764;2023-02-28T10:50:42;8.00;58.60
11838;DHT22;5978;51.020;6.764;2023-02-28T10:58:50;8.60;57.40
11838;DHT22;5978;51.020;6.764;2023-02-28T11:01:22;9.40;57.80
11838;DHT22;5978;51.020;6.764;2023-02-28T11:03:49;9.30;56.80
11838;DHT22;5978;51.020;6.764;2023-02-28T11:06:34;9.70;57.60
11838;DHT22;5978;51.020;6.764;2023-02-28T11:09:06;9.80;55.60
11838;DHT22;5978;51.020;6.764;2023-02-28T11:11:45;9.70;54.60
11838;DHT22;5978;51.020;6.764;2023-02-28T11:14:26;9.70;53.20
11838;DHT22;5978;51.020;6.764;2023-02-28T11:16:53;9.70;52.30
11838;DHT22;5978;51.020;6.764;2023-02-28T11:19:26;9.90;53.60
11838;DHT22;5978;51.020;6.764;2023-02-28T11:22:03;10.00;51.20
11838;DHT22;5978;51.020;6.764;2023-02-28T11:24:35;10.30;51.30
11838;DHT22;5978;51.020;6.764;2023-02-28T11:27:02;10.50;50.60
11838;DHT22;5978;51.020;6.764;2023-02-28T11:29:30;10.80;50.50
11838;DHT22;5978;51.020;6.764;2023-02-28T11:32:23;11.00;49.30
11838;DHT22;5978;51.020;6.764;2023-02-28T11:37:35;12.10;48.40
11838;DHT22;5978;51.020;6.764;2023-02-28T11:40:02;12.00;47.50
11838;DHT22;5978;51.020;6.764;2023-02-28T11:42:50;11.80;48.40
11838;DHT22;5978;51.020;6.764;2023-02-28T11:48:08;12.60;47.50
11838;DHT22;5978;51.020;6.764;2023-02-28T12:10:39;10.70;49.60
11838;DHT22;5978;51.020;6.764;2023-02-28T12:13:41;11.00;49.10
11838;DHT22;5978;51.020;6.764;2023-02-28T12:26:19;12.10;51.70
11838;DHT22;5978;51.020;6.764;2023-02-28T12:28:52;12.80;49.30
11838;DHT22;5978;51.020;6.764;2023-02-28T12:31:29;13.20;47.70
11838;DHT22;5978;51.020;6.764;2023-02-28T12:34:00;13.70;47.10
11838;DHT22;5978;51.020;6.764;2023-02-28T12:36:27;13.80;45.80
11838;DHT22;5978;51.020;6.764;2023-02-28T12:39:02;13.90;45.70
11838;DHT22;5978;51.020;6.764;2023-02-28T12:41:42;14.50;45.30
11838;DHT22;5978;51.020;6.764;2023-02-28T12:44:17;15.20;44.60
11838;DHT22;5978;51.020;6.764;2023-02-28T12:46:48;14.80;43.80
11838;DHT22;5978;51.020;6.764;2023-02-28T12:49:19;14.40;44.00
11838;DHT22;5978;51.020;6.764;2023-02-28T12:51:47;14.00;43.90
11838;DHT22;5978;51.020;6.764;2023-02-28T12:54:19;14.00;45.50
11838;DHT22;5978;51.020;6.764;2023-02-28T12:57:02;14.00;45.50
11838;DHT22;5978;51.020;6.764;2023-02-28T12:59:51;14.80;45.40
11838;DHT22;5978;51.020;6.764;2023-02-28T13:05:28;15.80;45.30
11838;DHT22;5978;51.020;6.764;2023-02-28T13:10:45;16.20;43.00
11838;DHT22;5978;51.020;6.764;2023-02-28T13:13:17;17.20;43.60
11838;DHT22;5978;51.020;6.764;2023-02-28T13:18:31;16.80;41.30
11838;DHT22;5978;51.020;6.764;2023-02-28T13:20:58;16.50;42.10
11838;DHT22;5978;51.020;6.764;2023-02-28T13:26:12;16.30;41.40
11838;DHT22;5978;51.020;6.764;2023-02-28T13:31:25;15.60;41.60
11838;DHT22;5978;51.020;6.764;2023-02-28T13:36:26;14.60;41.30
11838;DHT22;5978;51.020;6.764;2023-02-28T13:38:58;15.50;42.40
11838;DHT22;5978;51.020;6.764;2023-02-28T13:44:16;16.50;40.70
11838;DHT22;5978;51.020;6.764;2023-02-28T13:49:26;15.40;41.30
11838;DHT22;5978;51.020;6.764;2023-02-28T13:52:02;15.40;41.50
11838;DHT22;5978;51.020;6.764;2023-02-28T13:55:17;16.40;41.80
11838;DHT22;5978;51.020;6.764;2023-02-28T14:06:26;17.70;40.20
11838;DHT22;5978;51.020;6.764;2023-02-28T14:09:21;17.80;39.60
11838;DHT22;5978;51.020;6.764;2023-02-28T14:11:48;18.30;39.40
11838;DHT22;5978;51.020;6.764;2023-02-28T14:17:13;18.50;39.20
11838;DHT22;5978;51.020;6.764;2023-02-28T14:19:40;19.10;38.50
11838;DHT22;5978;51.020;6.764;2023-02-28T14:22:14;19.10;38.00
11838;DHT22;5978;51.020;6.764;2023-02-28T14:28:14;18.70;37.40
11838;DHT22;5978;51.020;6.764;2023-02-28T14:31:06;19.30;37.60
11838;DHT22;5978;51.020;6.764;2023-02-28T14:36:21;19.00;36.80
11838;DHT22;5978;51.020;6.764;2023-02-28T14:38:52;18.60;38.00
11838;DHT22;5978;51.020;6.764;2023-02-28T14:43:50;18.50;37.60
11838;DHT22;5978;51.020;6.764;2023-02-28T14:46:17;19.00;38.30
11838;DHT22;5978;51.020;6.764;2023-02-28T14:48:49;18.10;37.70
11838;DHT22;5978;51.020;6.764;2023-02-28T14:51:21;17.40;37.90
11838;DHT22;5978;51.020;6.764;2023-02-28T14:53:56;18.10;38.30
11838;DHT22;5978;51.020;6.764;2023-02-28T14:56:38;17.60;37.60
11838;DHT22;5978;51.020;6.764;2023-02-28T14:59:06;18.20;38.80
11838;DHT22;5978;51.020;6.764;2023-02-28T15:01:46;18.60;38.90
11838;DHT22;5978;51.020;6.764;2023-02-28T15:04:21;18.30;38.30
11838;DHT22;5978;51.020;6.764;2023-02-28T15:07:07;18.30;37.90
11838;DHT22;5978;51.020;6.764;2023-02-28T15:09:33;17.60;37.80
11838;DHT22;5978;51.020;6.764;2023-02-28T15:11:59;17.60;38.60
11838;DHT22;5978;51.020;6.764;2023-02-28T15:14:26;17.50;39.00
11838;DHT22;5978;51.020;6.764;2023-02-28T15:16:59;18.00;39.30
11838;DHT22;5978;51.020;6.764;2023-02-28T15:19:29;18.60;38.70
11838;DHT22;5978;51.020;6.764;2023-02-28T15:22:06;18.10;37.30
11838;DHT22;5978;51.020;6.764;2023-02-28T15:24:44;17.90;37.20
11838;DHT22;5978;51.020;6.764;2023-02-28T15:27:15;18.20;37.20
11838;DHT22;5978;51.020;6.764;2023-02-28T15:30:05;19.20;37.30
11838;DHT22;5978;51.020;6.764;2023-02-28T15:32:37;19.60;36.90
11838;DHT22;5978;51.020;6.764;2023-02-28T15:35:27;18.20;36.50
11838;DHT22;5978;51.020;6.764;2023-02-28T15:38:32;17.40;37.70
11838;DHT22;5978;51.020;6.764;2023-02-28T15:40:54;17.70;38.60
11838;DHT22;5978;51.020;6.764;2023-02-28T15:43:31;17.90;37.90
11838;DHT22;5978;51.020;6.764;2023-02-28T15:46:07;16.90;37.50
11838;DHT22;5978;51.020;6.764;2023-02-28T15:48:58;17.30;38.60
11838;DHT22;5978;51.020;6.764;2023-02-28T15:51:36;17.30;38.60
11838;DHT22;5978;51.020;6.764;2023-02-28T15:54:06;16.00;38.20
11838;DHT22;5978;51.020;6.764;2023-02-28T15:56:43;14.20;39.00
11838;DHT22;5978;51.020;6.764;2023-02-28T15:59:28;12.90;40.40
11838;DHT22;5978;51.020;6.764;2023-02-28T16:04:36;11.30;43.20
11838;DHT22;5978;51.020;6.764;2023-02-28T16:07:05;11.00;43.60
11838;DHT22;5978;51.020;6.764;2023-02-28T16:09:31;10.60;44.30
11838;DHT22;5978;51.020;6.764;2023-02-28T16:12:00;9.90;45.40
11838;DHT22;5978;51.020;6.764;2023-02-28T16:14:29;9.40;46.20
11838;DHT22;5978;51.020;6.764;2023-02-28T16:17:07;9.20;47.30
11838;DHT22;5978;51.020;6.764;2023-02-28T16:19:34;8.90;47.90
11838;DHT22;5978;51.020;6.764;2023-02-28T16:22:00;8.90;48.70
11838;DHT22;5978;51.020;6.764;2023-02-28T16:24:26;8.90;49.30
11838;DHT22;5978;51.020;6.764;2023-02-28T16:26:53;8.90;49.80
11838;DHT22;5978;51.020;6.764;2023-02-28T16:29:35;8.90;49.70
11838;DHT22;5978;51.020;6.764;2023-02-28T16:32:04;8.90;49.80
11838;DHT22;5978;51.020;6.764;2023-02-28T16:34:30;8.80;49.60
11838;DHT22;5978;51.020;6.764;2023-02-28T16:36:56;8.80;49.60
11838;DHT22;5978;51.020;6.764;2023-02-28T16:39:21;8.70;49.70
11838;DHT22;5978;51.020;6.764;2023-02-28T16:41:48;8.50;49.90
11838;DHT22;5978;51.020;6.764;2023-02-28T16:44:34;8.50;50.60
11838;DHT22;5978;51.020;6.764;2023-02-28T16:47:01;8.40;50.80
11838;DHT22;5978;51.020;6.764;2023-02-28T16:49:28;8.20;50.30
11838;DHT22;5978;51.020;6.764;2023-02-28T16:51:54;8.10;50.80
11838;DHT22;5978;51.020;6.764;2023-02-28T16:54:19;8.00;51.10
11838;DHT22;5978;51.020;6.764;2023-02-28T16:56:48;7.90;51.80
11838;DHT22;5978;51.020;6.764;2023-02-28T16:59:17;7.70;53.80
11838;DHT22;5978;51.020;6.764;2023-02-28T17:01:44;7.50;54.30
11838;DHT22;5978;51.020;6.764;2023-02-28T17:04:11;7.40;55.30
11838;DHT22;5978;51.020;6.764;2023-02-28T17:06:37;7.30;56.30
11838;DHT22;5978;51.020;6.764;2023-02-28T17:09:02;7.30;57.30
11838;DHT22;5978;51.020;6.764;2023-02-28T17:11:28;7.10;57.90
11838;DHT22;5978;51.020;6.764;2023-02-28T17:13:54;7.00;58.60
11838;DHT22;5978;51.020;6.764;2023-02-28T17:16:27;6.90;59.50
11838;DHT22;5978;51.020;6.764;2023-02-28T17:18:55;6.60;60.20
11838;DHT22;5978;51.020;6.764;2023-02-28T17:21:22;6.50;62.20
11838;DHT22;5978;51.020;6.764;2023-02-28T17:23:47;6.30;63.30
11838;DHT22;5978;51.020;6.764;2023-02-28T17:26:18;6.20;65.00
11838;DHT22;5978;51.020;6.764;2023-02-28T17:28:50;6.20;66.70
11838;DHT22;5978;51.020;6.764;2023-02-28T17:31:16;6.10;68.70
11838;DHT22;5978;51.020;6.764;2023-02-28T17:33:43;6.00;70.30
11838;DHT22;5978;51.020;6.764;2023-02-28T17:36:16;5.90;71.90
11838;DHT22;5978;51.020;6.764;2023-02-28T17:38:43;5.70;73.80
11838;DHT22;5978;51.020;6.764;2023-02-28T17:41:12;5.70;76.30
11838;DHT22;5978;51.020;6.764;2023-02-28T17:43:38;5.60;76.50
11838;DHT22;5978;51.020;6.764;2023-02-28T17:46:03;5.60;77.10
11838;DHT22;5978;51.020;6.764;2023-02-28T17:48:31;5.50;78.30
11838;DHT22;5978;51.020;6.764;2023-02-28T17:50:57;5.50;79.80
11838;DHT22;5978;51.020;6.764;2023-02-28T17:53:23;5.40;80.40
11838;DHT22;5978;51.020;6.764;2023-02-28T17:55:50;5.40;81.60
11838;DHT22;5978;51.020;6.764;2023-02-28T17:58:15;5.40;82.60
11838;DHT22;5978;51.020;6.764;2023-02-28T18:00:42;5.30;84.60
11838;DHT22;5978;51.020;6.764;2023-02-28T18:03:08;5.20;85.30
11838;DHT22;5978;51.020;6.764;2023-02-28T18:05:35;5.20;86.30
11838;DHT22;5978;51.020;6.764;2023-02-28T18:08:02;5.20;88.10
11838;DHT22;5978;51.020;6.764;2023-02-28T18:10:28;5.10;89.90
11838;DHT22;5978;51.020;6.764;2023-02-28T18:12:53;5.00;90.50
11838;DHT22;5978;51.020;6.764;2023-02-28T18:15:20;5.00;91.20
11838;DHT22;5978;51.020;6.764;2023-02-28T18:17:47;5.00;91.40
11838;DHT22;5978;51.020;6.764;2023-02-28T18:20:13;5.00;92.10
11838;DHT22;5978;51.020;6.764;2023-02-28T18:22:40;4.90;92.50